Time;durP1;ratioP1;P1;durP2;ratioP2;P2;SDS_P1;SDS_P2;PMS_P1;PMS_P2;Temp;Humidity;BMP_temperature;BMP_pressure;BME280_temperature;BME280_humidity;BME280_pressure;Samples;Min_cycle;Max_cycle;Signal;HPM_P1;HPM_P2
2022/07/12 00:00:52;;;;;;;4.03;2.30;;;17.30;99.90;;;;;;5100309;28;20350;-63
2022/07/12 00:03:18;;;;;;;4.03;2.20;;;17.30;99.90;;;;;;5100674;28;20405;-62
2022/07/12 00:05:44;;;;;;;3.13;2.00;;;17.20;99.90;;;;;;5104321;28;20101;-62
2022/07/12 00:08:09;;;;;;;3.60;2.20;;;17.20;99.90;;;;;;5106659;28;20039;-62
2022/07/12 00:10:35;;;;;;;3.55;1.88;;;17.20;99.90;;;;;;5104733;27;20077;-63
2022/07/12 00:13:01;;;;;;;3.35;1.63;;;17.20;99.90;;;;;;5106652;28;20074;-62
2022/07/12 00:15:27;;;;;;;3.08;1.85;;;17.10;99.90;;;;;;5107868;28;20066;-62
2022/07/12 00:17:52;;;;;;;3.20;1.73;;;17.10;99.90;;;;;;5108275;27;20433;-63
2022/07/12 00:20:18;;;;;;;4.38;2.20;;;17.00;99.90;;;;;;5110647;27;20154;-62
2022/07/12 00:22:43;;;;;;;3.08;1.70;;;17.00;99.90;;;;;;5112332;27;20062;-63
2022/07/12 00:25:09;;;;;;;2.88;1.70;;;17.00;99.90;;;;;;5107280;27;20661;-63
2022/07/12 00:27:35;;;;;;;3.40;2.00;;;17.00;99.90;;;;;;5102113;28;20051;-63
2022/07/12 00:30:00;;;;;;;3.05;1.80;;;16.90;99.90;;;;;;5107120;27;20625;-63
2022/07/12 00:32:26;;;;;;;4.32;2.00;;;16.90;99.90;;;;;;5104258;28;20060;-63
2022/07/12 00:34:51;;;;;;;3.58;1.90;;;16.90;99.90;;;;;;5106481;27;20138;-63
2022/07/12 00:37:17;;;;;;;4.13;2.13;;;16.80;99.90;;;;;;5106423;28;20039;-63
2022/07/12 00:39:42;;;;;;;3.70;2.00;;;16.80;99.90;;;;;;5103735;28;20043;-64
2022/07/12 00:42:08;;;;;;;4.28;2.10;;;16.80;99.90;;;;;;5105130;27;20077;-63
2022/07/12 00:44:33;;;;;;;3.55;1.92;;;16.70;99.90;;;;;;5105101;28;20043;-63
2022/07/12 00:47:02;;;;;;;4.00;1.90;;;16.70;99.90;;;;;;5107918;28;20435;-63
2022/07/12 00:49:29;;;;;;;3.03;1.80;;;16.70;99.90;;;;;;5105554;28;20074;-63
2022/07/12 00:51:55;;;;;;;3.95;1.70;;;16.70;99.90;;;;;;5103222;28;20047;-63
2022/07/12 00:54:21;;;;;;;3.60;1.63;;;16.60;99.90;;;;;;5101900;28;20125;-63
2022/07/12 00:56:47;;;;;;;2.92;1.67;;;16.60;99.90;;;;;;5110061;27;20391;-63
2022/07/12 00:59:13;;;;;;;3.60;1.60;;;16.50;99.90;;;;;;5100139;27;20120;-63
2022/07/12 01:01:38;;;;;;;2.63;1.70;;;16.50;99.90;;;;;;5102273;27;20043;-62
2022/07/12 01:04:05;;;;;;;2.35;1.50;;;16.50;99.90;;;;;;5105745;28;20452;-63
2022/07/12 01:06:31;;;;;;;3.33;1.73;;;16.50;99.90;;;;;;5101703;28;20040;-63
2022/07/12 01:08:58;;;;;;;3.20;1.90;;;16.40;99.90;;;;;;5103042;28;20145;-63
2022/07/12 01:11:25;;;;;;;4.55;2.10;;;16.40;99.90;;;;;;5102962;27;20116;-63
2022/07/12 01:13:52;;;;;;;3.38;2.00;;;16.40;99.90;;;;;;5106248;28;20089;-63
2022/07/12 01:16:19;;;;;;;3.45;2.00;;;16.30;99.90;;;;;;5103632;28;20092;-63
2022/07/12 01:18:45;;;;;;;4.05;2.15;;;16.30;99.90;;;;;;5102772;27;20190;-63
2022/07/12 01:21:19;;;;;;;3.40;2.08;;;16.30;99.90;;;;;;5102553;28;20051;-63
2022/07/12 01:23:47;;;;;;;6.13;2.10;;;16.30;99.90;;;;;;5108318;27;20072;-63
2022/07/12 01:26:12;;;;;;;2.75;1.58;;;16.30;99.90;;;;;;5105511;28;20755;-63
2022/07/12 01:28:38;;;;;;;4.20;1.92;;;16.30;99.90;;;;;;5105734;28;20058;-63
2022/07/12 01:31:05;;;;;;;3.67;2.10;;;16.20;99.90;;;;;;5104909;27;20120;-63
2022/07/12 01:33:30;;;;;;;3.92;2.20;;;16.20;99.90;;;;;;5105670;28;20039;-63
2022/07/12 01:35:56;;;;;;;4.97;2.47;;;16.20;99.90;;;;;;5107455;28;20473;-63
2022/07/12 01:38:22;;;;;;;3.90;2.20;;;16.20;99.90;;;;;;5107876;28;20067;-63
2022/07/12 01:40:48;;;;;;;3.67;2.20;;;16.10;99.90;;;;;;5103886;28;20123;-64
2022/07/12 01:43:14;;;;;;;4.05;2.17;;;16.10;99.90;;;;;;5106878;27;20323;-63
2022/07/12 01:45:41;;;;;;;3.80;2.33;;;16.10;99.90;;;;;;5107656;28;20471;-63
2022/07/12 01:48:07;;;;;;;4.10;2.20;;;16.10;99.90;;;;;;5104338;28;20430;-63
2022/07/12 01:50:32;;;;;;;4.10;2.38;;;16.00;99.90;;;;;;5108129;28;20062;-63
2022/07/12 01:52:59;;;;;;;4.75;2.20;;;16.00;99.90;;;;;;5105508;27;20186;-63
2022/07/12 01:55:25;;;;;;;4.93;2.80;;;16.00;99.90;;;;;;5087309;28;20063;-63
2022/07/12 01:57:51;;;;;;;4.43;2.50;;;15.90;99.90;;;;;;5107326;28;20366;-63
2022/07/12 02:00:19;;;;;;;4.50;2.80;;;15.90;99.90;;;;;;5106846;28;20451;-63
2022/07/12 02:02:45;;;;;;;4.50;2.80;;;15.90;99.90;;;;;;5103128;28;20052;-63
2022/07/12 02:05:11;;;;;;;4.63;3.00;;;15.90;99.90;;;;;;5108266;28;20054;-63
2022/07/12 02:07:37;;;;;;;4.47;2.83;;;15.80;99.90;;;;;;5104208;28;20031;-62
2022/07/12 02:10:08;;;;;;;5.63;2.90;;;15.90;99.90;;;;;;5105984;28;20077;-63
2022/07/12 02:12:36;;;;;;;5.00;2.60;;;15.80;99.90;;;;;;5103965;28;20059;-63
2022/07/12 02:15:02;;;;;;;4.53;2.08;;;15.80;99.90;;;;;;5100320;28;20189;-63
2022/07/12 02:17:27;;;;;;;4.10;2.22;;;15.80;99.90;;;;;;5105003;28;20122;-63
2022/07/12 02:19:53;;;;;;;3.88;1.92;;;15.80;99.90;;;;;;5104823;28;20035;-63
2022/07/12 02:22:19;;;;;;;4.63;2.40;;;15.70;99.90;;;;;;5107502;28;20044;-63
2022/07/12 02:24:44;;;;;;;6.20;2.67;;;15.70;99.90;;;;;;5108206;28;20112;-63
2022/07/12 02:27:10;;;;;;;4.00;2.30;;;15.60;99.90;;;;;;5104178;28;20031;-63
2022/07/12 02:29:35;;;;;;;3.92;1.90;;;15.60;99.90;;;;;;5104807;28;20043;-63
2022/07/12 02:32:02;;;;;;;3.10;1.90;;;15.60;99.90;;;;;;5096894;27;20065;-63
2022/07/12 02:34:27;;;;;;;4.15;2.10;;;15.50;99.90;;;;;;5104349;28;20563;-63
2022/07/12 02:36:53;;;;;;;4.28;2.03;;;15.60;99.90;;;;;;5107328;28;20111;-63
2022/07/12 02:39:19;;;;;;;4.55;2.40;;;15.50;99.90;;;;;;5104036;27;20421;-63
2022/07/12 02:41:44;;;;;;;3.47;2.08;;;15.50;99.90;;;;;;5101332;28;20040;-63
2022/07/12 02:44:10;;;;;;;5.20;2.50;;;15.40;99.90;;;;;;5098455;28;20115;-63
2022/07/12 02:46:35;;;;;;;6.28;2.40;;;15.40;99.90;;;;;;5103969;28;20053;-63
2022/07/12 02:49:01;;;;;;;4.95;2.00;;;15.40;99.90;;;;;;5102207;28;20122;-62
2022/07/12 02:51:27;;;;;;;5.95;2.38;;;15.40;99.90;;;;;;5101167;28;20039;-63
2022/07/12 02:53:52;;;;;;;4.60;2.10;;;15.40;99.90;;;;;;5103278;27;20039;-64
2022/07/12 02:56:18;;;;;;;5.40;2.33;;;15.40;99.90;;;;;;5101931;27;20052;-63
2022/07/12 02:58:43;;;;;;;4.90;2.22;;;15.30;99.90;;;;;;5103083;28;20048;-64
2022/07/12 03:01:09;;;;;;;4.70;2.45;;;15.30;99.90;;;;;;5103195;27;20031;-64
2022/07/12 03:03:34;;;;;;;3.70;2.00;;;15.30;99.90;;;;;;5103180;27;20046;-64
2022/07/12 03:06:00;;;;;;;4.57;2.20;;;15.30;99.90;;;;;;5102101;28;20489;-63
2022/07/12 03:08:25;;;;;;;8.10;2.28;;;15.20;99.90;;;;;;5103210;28;20051;-63
2022/07/12 03:10:51;;;;;;;5.95;2.65;;;15.20;99.90;;;;;;5098546;28;20062;-63
2022/07/12 03:13:17;;;;;;;4.95;2.75;;;15.20;99.90;;;;;;5103420;27;20048;-63
2022/07/12 03:15:45;;;;;;;4.50;2.38;;;15.20;99.90;;;;;;5101803;28;20046;-63
2022/07/12 03:18:11;;;;;;;8.30;2.17;;;15.20;99.90;;;;;;5096609;28;20051;-63
2022/07/12 03:20:37;;;;;;;9.65;2.50;;;15.20;99.90;;;;;;5100465;28;20052;-64
2022/07/12 03:23:02;;;;;;;3.63;2.20;;;15.10;99.90;;;;;;5100186;27;20040;-63
2022/07/12 03:25:28;;;;;;;5.38;2.13;;;15.10;99.90;;;;;;5101090;28;20066;-63
2022/07/12 03:27:54;;;;;;;3.70;1.90;;;15.10;99.90;;;;;;5102372;28;20116;-63
2022/07/12 03:30:20;;;;;;;4.22;1.83;;;15.10;99.90;;;;;;5102787;28;20134;-63
2022/07/12 03:32:45;;;;;;;3.72;1.75;;;15.10;99.90;;;;;;5095835;28;20108;-63
2022/07/12 03:35:11;;;;;;;2.88;1.70;;;15.10;99.90;;;;;;5099532;28;20162;-63
2022/07/12 03:37:41;;;;;;;2.85;1.45;;;15.10;99.90;;;;;;5105868;28;20096;-63
2022/07/12 03:40:07;;;;;;;2.55;1.58;;;15.10;99.90;;;;;;5103196;28;20517;-63
2022/07/12 03:42:33;;;;;;;2.35;1.40;;;15.10;99.90;;;;;;5103668;28;20080;-63
2022/07/12 03:44:58;;;;;;;3.33;1.70;;;15.10;99.90;;;;;;5102818;28;20044;-64
2022/07/12 03:47:24;;;;;;;2.55;1.60;;;15.10;99.90;;;;;;5103067;28;20049;-63
2022/07/12 03:49:49;;;;;;;2.53;1.58;;;15.00;99.90;;;;;;5105050;28;20164;-64
2022/07/12 03:52:15;;;;;;;2.67;1.30;;;15.00;99.90;;;;;;5102411;28;20066;-63
2022/07/12 03:54:40;;;;;;;3.38;1.58;;;15.00;99.90;;;;;;5106146;28;20072;-63
2022/07/12 03:57:15;;;;;;;3.03;1.42;;;15.00;99.90;;;;;;5103522;28;20051;-63
2022/07/12 03:59:42;;;;;;;3.15;1.30;;;15.00;99.90;;;;;;5106724;28;20665;-63
2022/07/12 04:02:07;;;;;;;1.50;1.02;;;15.00;99.90;;;;;;5102944;28;20477;-63
2022/07/12 04:04:33;;;;;;;2.63;1.40;;;15.00;99.90;;;;;;5102999;28;20127;-63
2022/07/12 04:06:58;;;;;;;3.78;1.63;;;15.00;99.90;;;;;;5100704;28;20044;-64
2022/07/12 04:09:24;;;;;;;2.95;1.50;;;15.00;99.90;;;;;;5104460;28;20111;-63
2022/07/12 04:11:49;;;;;;;2.90;1.65;;;15.00;99.90;;;;;;5100447;28;20070;-64
2022/07/12 04:14:15;;;;;;;3.25;1.73;;;15.00;99.90;;;;;;5105990;28;20039;-64
2022/07/12 04:16:41;;;;;;;4.07;1.77;;;15.00;99.90;;;;;;5100047;28;20035;-63
2022/07/12 04:19:09;;;;;;;5.15;2.00;;;15.10;99.90;;;;;;5103574;28;20042;-64
2022/07/12 04:21:35;;;;;;;3.15;1.83;;;15.00;99.90;;;;;;5102925;28;20063;-63
2022/07/12 04:24:00;;;;;;;4.45;1.90;;;15.10;99.90;;;;;;5105246;28;20039;-63
2022/07/12 04:26:26;;;;;;;3.70;2.20;;;15.10;99.90;;;;;;5101414;28;20330;-63
2022/07/12 04:28:52;;;;;;;4.00;1.90;;;15.10;99.90;;;;;;5101594;28;20040;-63
2022/07/12 04:31:17;;;;;;;3.40;2.00;;;15.20;99.90;;;;;;5094909;28;20042;-64
2022/07/12 04:33:43;;;;;;;3.95;2.08;;;15.20;99.90;;;;;;5098211;28;20044;-64
2022/07/12 04:36:08;;;;;;;3.72;2.05;;;15.20;99.90;;;;;;5099516;28;20058;-63
2022/07/12 04:38:34;;;;;;;4.30;2.13;;;15.30;99.90;;;;;;5100068;28;20063;-64
2022/07/12 04:40:59;;;;;;;4.13;1.88;;;15.40;99.90;;;;;;5100638;28;20455;-64
2022/07/12 04:43:25;;;;;;;4.38;2.13;;;15.40;99.90;;;;;;5109199;28;20363;-64
2022/07/12 04:45:51;;;;;;;4.05;2.17;;;15.50;99.90;;;;;;5108461;28;20078;-65
2022/07/12 04:48:17;;;;;;;4.20;2.08;;;15.60;99.90;;;;;;5113124;27;20117;-64
2022/07/12 04:50:43;;;;;;;3.90;2.10;;;15.70;99.90;;;;;;5104537;28;20810;-64
2022/07/12 04:53:09;;;;;;;3.22;1.80;;;15.80;99.90;;;;;;5103482;28;20469;-63
2022/07/12 04:55:34;;;;;;;3.80;2.20;;;16.00;99.90;;;;;;5109028;28;20036;-63
2022/07/12 04:58:00;;;;;;;4.13;2.20;;;16.10;99.90;;;;;;5105737;28;20088;-63
2022/07/12 05:00:26;;;;;;;3.50;2.20;;;16.30;99.90;;;;;;5103715;28;20036;-63
2022/07/12 05:02:51;;;;;;;3.25;1.90;;;16.50;99.90;;;;;;5101020;28;21716;-63
2022/07/12 05:05:17;;;;;;;3.80;2.50;;;16.70;99.90;;;;;;5105116;28;20047;-64
2022/07/12 05:07:43;;;;;;;3.75;2.40;;;16.80;99.90;;;;;;5103131;27;20067;-64
2022/07/12 05:10:08;;;;;;;4.90;2.97;;;17.00;99.90;;;;;;5106321;28;20077;-64
2022/07/12 05:12:35;;;;;;;4.55;2.53;;;17.30;99.90;;;;;;5103822;27;20635;-64
2022/07/12 05:15:01;;;;;;;4.70;3.13;;;17.50;99.90;;;;;;5100355;27;20042;-64
2022/07/12 05:17:26;;;;;;;3.97;2.67;;;17.80;99.90;;;;;;5103205;28;20047;-64
2022/07/12 05:19:52;;;;;;;5.38;3.22;;;18.00;99.90;;;;;;5105931;27;20059;-65
2022/07/12 05:22:17;;;;;;;4.75;3.17;;;18.30;99.90;;;;;;5108555;27;20402;-64
2022/07/12 05:24:43;;;;;;;4.72;3.15;;;18.50;99.90;;;;;;5108049;28;20070;-64
2022/07/12 05:27:09;;;;;;;4.63;3.63;;;18.80;99.90;;;;;;5102801;28;20036;-64
2022/07/12 05:29:35;;;;;;;4.85;3.50;;;19.00;99.90;;;;;;5104219;27;20130;-64
2022/07/12 05:32:01;;;;;;;5.50;3.42;;;19.20;99.90;;;;;;5109248;28;20126;-65
2022/07/12 05:34:27;;;;;;;6.18;3.72;;;19.30;99.90;;;;;;5107501;28;20115;-63
2022/07/12 05:36:53;;;;;;;5.38;3.78;;;19.30;99.90;;;;;;5101521;27;20417;-64
2022/07/12 05:39:18;;;;;;;5.13;3.85;;;19.30;99.90;;;;;;5106423;28;20040;-64
2022/07/12 05:41:44;;;;;;;5.30;4.00;;;19.30;99.90;;;;;;5105019;28;20040;-64
2022/07/12 05:44:10;;;;;;;6.18;4.10;;;19.30;99.90;;;;;;5107602;28;20051;-65
2022/07/12 05:46:36;;;;;;;6.00;4.30;;;19.30;99.90;;;;;;5108336;27;20155;-66
2022/07/12 05:49:02;;;;;;;5.63;4.00;;;19.30;99.90;;;;;;5107831;28;20157;-66
2022/07/12 05:54:12;;;;;;;5.53;4.00;;;19.20;99.90;;;;;;5108902;28;20071;-64
2022/07/12 05:56:37;;;;;;;5.03;4.05;;;19.30;99.90;;;;;;5103668;28;20585;-64
2022/07/12 05:59:03;;;;;;;6.55;3.95;;;19.30;99.90;;;;;;5107654;28;20084;-64
2022/07/12 06:01:29;;;;;;;5.53;4.07;;;19.30;99.90;;;;;;5100989;28;20052;-64
2022/07/12 06:03:54;;;;;;;5.35;4.30;;;19.40;99.90;;;;;;5097076;28;20339;-64
2022/07/12 06:06:20;;;;;;;5.85;4.22;;;19.40;99.90;;;;;;5096324;28;20125;-64
2022/07/12 06:08:45;;;;;;;6.05;3.60;;;19.40;99.90;;;;;;5100384;28;20067;-64
2022/07/12 06:11:11;;;;;;;5.80;4.45;;;19.40;99.90;;;;;;5099591;28;20176;-64
2022/07/12 06:13:37;;;;;;;6.53;4.70;;;19.50;99.90;;;;;;5095686;28;20044;-65
2022/07/12 06:16:05;;;;;;;5.25;4.28;;;19.50;99.90;;;;;;5095470;28;20036;-65
2022/07/12 06:18:31;;;;;;;5.32;4.30;;;19.60;99.90;;;;;;5102828;28;20090;-65
2022/07/12 06:20:57;;;;;;;5.57;4.43;;;19.70;99.90;;;;;;5104323;28;20105;-64
2022/07/12 06:23:23;;;;;;;5.35;4.30;;;19.70;99.90;;;;;;5102801;28;20525;-65
2022/07/12 06:25:48;;;;;;;5.50;4.35;;;19.80;99.90;;;;;;5101484;28;20425;-65
2022/07/12 06:28:14;;;;;;;5.68;4.40;;;19.90;99.90;;;;;;5100807;28;20551;-65
2022/07/12 06:30:39;;;;;;;5.82;4.57;;;20.00;99.90;;;;;;5098971;28;20176;-64
2022/07/12 06:33:05;;;;;;;6.57;4.50;;;20.00;99.90;;;;;;5101240;28;20055;-64
2022/07/12 06:35:30;;;;;;;5.68;4.60;;;20.10;99.90;;;;;;5103766;28;20040;-64
2022/07/12 06:37:56;;;;;;;6.30;4.43;;;20.20;99.90;;;;;;5103370;28;20092;-64
2022/07/12 06:40:22;;;;;;;5.07;3.90;;;20.20;99.90;;;;;;5104258;27;20099;-65
2022/07/12 06:42:48;;;;;;;5.38;3.75;;;20.30;99.90;;;;;;5100313;28;20115;-65
2022/07/12 06:45:14;;;;;;;5.38;4.05;;;20.40;99.90;;;;;;5098038;27;20031;-65
2022/07/12 06:47:40;;;;;;;5.28;4.05;;;20.60;99.90;;;;;;5100222;28;20054;-65
2022/07/12 06:50:06;;;;;;;6.63;4.38;;;20.60;99.90;;;;;;5101529;28;20119;-65
2022/07/12 06:52:31;;;;;;;5.22;3.50;;;20.80;99.90;;;;;;5102391;28;20153;-65
2022/07/12 06:54:57;;;;;;;3.92;2.85;;;20.90;99.90;;;;;;5099991;28;20130;-65
2022/07/12 06:57:23;;;;;;;5.85;3.80;;;21.10;99.90;;;;;;5102103;28;20032;-64
2022/07/12 06:59:49;;;;;;;4.90;3.53;;;21.40;99.90;;;;;;5099096;28;20123;-65
2022/07/12 07:02:15;;;;;;;5.28;4.05;;;21.50;99.90;;;;;;5099905;28;20069;-65
2022/07/12 07:04:40;;;;;;;4.30;2.78;;;21.60;99.90;;;;;;5098952;28;20055;-65
2022/07/12 07:07:06;;;;;;;5.32;4.15;;;21.70;99.90;;;;;;5098179;28;20044;-67
2022/07/12 07:09:33;;;;;;;5.07;2.50;;;21.90;99.90;;;;;;5104159;27;20036;-67
2022/07/12 07:11:59;;;;;;;4.97;3.92;;;22.00;99.90;;;;;;5094407;28;20590;-67
2022/07/12 07:14:25;;;;;;;4.75;3.67;;;22.20;99.90;;;;;;5099928;28;20118;-67
2022/07/12 07:16:53;;;;;;;5.03;2.95;;;22.30;99.90;;;;;;5099337;28;20051;-67
2022/07/12 07:19:18;;;;;;;3.55;2.40;;;22.40;99.90;;;;;;5098559;27;20122;-67
2022/07/12 07:21:44;;;;;;;3.80;2.50;;;22.40;99.90;;;;;;5101040;28;20435;-67
2022/07/12 07:24:10;;;;;;;4.78;3.25;;;22.40;99.90;;;;;;5101754;28;20108;-67
2022/07/12 07:26:36;;;;;;;3.85;2.50;;;22.50;99.90;;;;;;5097002;28;20194;-67
2022/07/12 07:31:46;;;;;;;5.18;3.70;;;22.60;99.90;;;;;;5096511;28;20055;-67
2022/07/12 07:34:11;;;;;;;4.68;3.00;;;22.60;99.90;;;;;;5098789;28;20043;-67
2022/07/12 07:36:37;;;;;;;4.75;3.13;;;22.50;99.90;;;;;;5100418;28;20437;-67
2022/07/12 07:39:03;;;;;;;4.88;3.35;;;22.70;99.90;;;;;;5100570;28;20043;-67
2022/07/12 07:41:28;;;;;;;6.13;3.80;;;22.90;99.90;;;;;;5099855;28;20110;-67
2022/07/12 07:43:54;;;;;;;5.60;3.80;;;23.00;99.90;;;;;;5100287;28;20111;-67
2022/07/12 07:46:20;;;;;;;6.18;3.95;;;23.20;99.90;;;;;;5098956;28;20123;-67
2022/07/12 07:48:45;;;;;;;5.22;3.58;;;23.40;99.90;;;;;;5101238;28;20467;-66
2022/07/12 07:51:11;;;;;;;4.78;3.63;;;23.70;99.90;;;;;;5098193;28;20054;-67
2022/07/12 07:53:36;;;;;;;4.10;2.83;;;24.00;99.90;;;;;;5099009;28;20520;-67
2022/07/12 07:56:02;;;;;;;4.65;3.63;;;24.30;99.90;;;;;;5099823;28;20100;-67
2022/07/12 07:58:28;;;;;;;5.25;3.53;;;24.40;99.90;;;;;;5101923;28;20127;-67
2022/07/12 08:00:53;;;;;;;4.75;3.22;;;24.50;99.90;;;;;;5099515;28;21339;-69
2022/07/12 08:03:19;;;;;;;5.75;3.17;;;24.60;99.90;;;;;;5104302;28;20051;-68
2022/07/12 08:05:46;;;;;;;4.80;3.13;;;24.70;99.90;;;;;;5107203;28;20051;-68
2022/07/12 08:08:11;;;;;;;4.95;3.03;;;24.80;99.90;;;;;;5101387;28;20043;-68
2022/07/12 08:10:37;;;;;;;5.72;3.60;;;24.90;99.90;;;;;;5094477;28;20036;-68
2022/07/12 08:13:03;;;;;;;4.25;2.58;;;25.00;99.90;;;;;;5107140;28;20035;-68
2022/07/12 08:15:29;;;;;;;4.93;3.13;;;25.10;99.90;;;;;;5106238;28;20409;-68
2022/07/12 08:17:55;;;;;;;5.55;3.20;;;25.10;99.90;;;;;;5108956;28;20470;-67
2022/07/12 08:20:22;;;;;;;4.57;2.95;;;25.10;99.90;;;;;;5111017;28;20074;-67
2022/07/12 08:22:48;;;;;;;5.28;3.00;;;25.00;99.90;;;;;;5110504;28;20048;-67
2022/07/12 08:25:14;;;;;;;3.65;2.70;;;25.00;99.90;;;;;;5110040;28;20035;-67
2022/07/12 08:27:39;;;;;;;4.70;2.60;;;24.90;99.90;;;;;;5110437;28;20046;-67
2022/07/12 08:30:06;;;;;;;4.47;2.05;;;24.90;99.90;;;;;;5107407;28;20111;-67
2022/07/12 08:32:31;;;;;;;4.50;3.03;;;24.90;99.90;;;;;;5109297;28;20044;-67
2022/07/12 08:34:57;;;;;;;3.60;2.60;;;24.80;99.90;;;;;;5106527;28;20138;-67
2022/07/12 08:37:23;;;;;;;4.05;2.67;;;24.70;99.90;;;;;;5093398;28;20467;-67
2022/07/12 08:39:48;;;;;;;4.13;2.90;;;24.60;99.90;;;;;;5104612;28;20071;-67
2022/07/12 08:42:16;;;;;;;3.30;2.00;;;24.40;99.90;;;;;;5100633;27;20499;-67
2022/07/12 08:44:53;;;;;;;3.83;2.70;;;24.40;99.90;;;;;;5099699;28;20047;-67
2022/07/12 08:47:18;;;;;;;5.45;3.00;;;24.40;99.90;;;;;;5101098;27;20048;-67
2022/07/12 08:50:19;;;;;;;5.45;2.80;;;24.40;99.90;;;;;;5103145;28;20036;-67
2022/07/12 08:52:49;;;;;;;5.22;2.95;;;24.40;99.90;;;;;;5102643;28;20169;-67
2022/07/12 08:55:18;;;;;;;3.88;2.45;;;24.50;99.90;;;;;;5100482;28;20516;-67
2022/07/12 08:57:44;;;;;;;3.88;2.60;;;24.60;99.90;;;;;;5102790;28;20051;-67
2022/07/12 09:00:10;;;;;;;5.38;3.00;;;24.80;99.90;;;;;;5102993;28;20075;-67
2022/07/12 09:02:53;;;;;;;5.00;2.97;;;24.90;99.90;;;;;;5098856;28;20043;-67
2022/07/12 09:05:21;;;;;;;4.85;2.78;;;25.10;99.90;;;;;;5100505;28;20054;-67
2022/07/12 09:07:48;;;;;;;3.97;2.10;;;25.10;99.90;;;;;;5103637;28;20085;-67
2022/07/12 09:10:14;;;;;;;3.55;1.98;;;25.20;99.90;;;;;;5101498;28;20115;-67
2022/07/12 09:12:41;;;;;;;5.35;2.90;;;25.20;99.90;;;;;;5099827;28;20051;-68
2022/07/12 09:15:15;;;;;;;3.72;2.58;;;25.30;99.90;;;;;;5103751;28;20086;-67
2022/07/12 09:17:46;;;;;;;2.70;1.95;;;25.40;99.90;;;;;;5101756;28;20290;-67
2022/07/12 09:20:13;;;;;;;4.45;2.60;;;25.50;99.90;;;;;;5102239;28;20582;-67
2022/07/12 09:22:51;;;;;;;4.20;2.90;;;25.70;99.90;;;;;;5100682;28;20097;-67
2022/07/12 09:25:18;;;;;;;5.45;3.08;;;25.70;99.90;;;;;;5102895;28;20061;-67
2022/07/12 09:27:51;;;;;;;4.93;3.65;;;25.80;99.90;;;;;;5100650;28;20113;-68
2022/07/12 09:30:17;;;;;;;5.18;3.10;;;25.80;99.90;;;;;;5103253;28;20399;-67
2022/07/12 09:38:53;;;;;;;3.58;2.30;;;26.10;99.90;;;;;;5059431;28;20114;-67
2022/07/12 09:41:21;;;;;;;6.15;2.50;;;26.20;99.90;;;;;;5059122;28;20044;-67
2022/07/12 09:43:47;;;;;;;6.40;3.58;;;26.40;99.90;;;;;;5084438;28;20101;-67
2022/07/12 09:46:17;;;;;;;4.40;2.67;;;26.50;99.90;;;;;;5096610;28;20151;-67
2022/07/12 09:48:44;;;;;;;4.53;3.00;;;26.50;99.90;;;;;;5103764;28;20074;-67
2022/07/12 09:51:14;;;;;;;5.10;2.70;;;26.60;99.90;;;;;;5100358;27;20122;-67
2022/07/12 09:53:48;;;;;;;6.57;2.60;;;26.70;99.90;;;;;;5103774;28;20162;-67
2022/07/12 09:56:15;;;;;;;4.43;2.15;;;26.70;99.80;;;;;;5102620;28;20036;-67
2022/07/12 09:58:49;;;;;;;4.85;2.45;;;26.70;99.60;;;;;;5103929;28;20127;-67
2022/07/12 10:01:16;;;;;;;3.42;1.80;;;26.70;99.50;;;;;;5101132;28;20410;-67
2022/07/12 10:03:42;;;;;;;5.03;1.90;;;26.80;99.10;;;;;;5103453;28;20036;-67
2022/07/12 10:06:09;;;;;;;3.17;1.90;;;26.80;97.20;;;;;;5103094;28;20199;-67
2022/07/12 10:08:35;;;;;;;4.05;2.50;;;26.60;96.40;;;;;;5107061;28;20047;-67
2022/07/12 10:11:01;;;;;;;2.92;1.58;;;26.70;96.80;;;;;;5101356;28;20069;-67
2022/07/12 10:13:27;;;;;;;3.28;1.73;;;26.70;96.70;;;;;;5108738;28;20155;-67
2022/07/12 10:16:00;;;;;;;2.85;1.42;;;26.80;96.20;;;;;;5105662;28;20059;-66
2022/07/12 10:18:26;;;;;;;3.10;1.73;;;27.00;95.60;;;;;;5109145;28;20122;-67
2022/07/12 10:20:52;;;;;;;4.25;2.17;;;27.10;96.00;;;;;;5108399;28;20122;-67
2022/07/12 10:23:17;;;;;;;3.78;1.73;;;27.10;95.50;;;;;;5108277;28;20052;-67
2022/07/12 10:25:43;;;;;;;3.85;1.50;;;27.30;94.90;;;;;;5109493;28;20047;-67
2022/07/12 10:28:09;;;;;;;2.35;1.10;;;27.40;93.90;;;;;;5107429;28;20444;-67
2022/07/12 10:30:48;;;;;;;2.33;1.30;;;27.50;92.90;;;;;;5107847;28;20073;-67
2022/07/12 10:33:22;;;;;;;1.92;1.20;;;27.70;92.50;;;;;;5104185;28;20528;-67
2022/07/12 10:35:59;;;;;;;2.20;1.38;;;27.80;92.80;;;;;;5105829;28;20047;-68
2022/07/12 10:38:25;;;;;;;2.78;1.63;;;27.90;92.10;;;;;;5109101;28;20046;-66
2022/07/12 10:40:52;;;;;;;2.63;1.60;;;27.90;91.80;;;;;;5107719;28;20044;-66
2022/07/12 10:46:16;;;;;;;6.78;1.85;;;28.10;91.40;;;;;;5106897;28;20051;-67
2022/07/12 10:48:42;;;;;;;2.22;1.20;;;28.00;90.20;;;;;;5107430;28;20059;-69
2022/07/12 10:51:20;;;;;;;3.22;1.60;;;28.00;90.60;;;;;;5102946;28;20066;-67
2022/07/12 10:53:48;;;;;;;3.10;1.75;;;27.90;90.90;;;;;;5108571;28;20461;-67
2022/07/12 10:56:24;;;;;;;2.50;1.58;;;27.90;91.30;;;;;;5106332;28;20079;-66
2022/07/12 10:58:57;;;;;;;2.75;1.30;;;28.10;91.50;;;;;;5105249;28;20086;-66
2022/07/12 11:01:31;;;;;;;2.85;1.30;;;28.30;91.20;;;;;;5108240;27;20055;-66
2022/07/12 11:04:03;;;;;;;1.90;1.17;;;28.40;90.50;;;;;;5108419;28;20400;-66
2022/07/12 11:06:29;;;;;;;2.45;1.50;;;28.60;90.70;;;;;;5105318;28;20051;-67
2022/07/12 11:09:03;;;;;;;2.20;1.20;;;28.70;90.50;;;;;;5107500;28;20039;-67
2022/07/12 11:11:49;;;;;;;1.77;1.23;;;28.50;88.30;;;;;;5104486;28;20043;-67
2022/07/12 11:14:25;;;;;;;4.18;1.38;;;28.50;86.80;;;;;;5105892;28;20047;-67
2022/07/12 11:16:52;;;;;;;2.63;1.17;;;28.40;85.00;;;;;;5106083;28;20123;-67
2022/07/12 11:19:26;;;;;;;2.65;1.27;;;28.40;86.40;;;;;;5103552;28;20035;-67
2022/07/12 11:21:56;;;;;;;2.65;1.17;;;28.60;89.10;;;;;;5104000;28;20371;-67
2022/07/12 11:24:23;;;;;;;3.35;1.50;;;28.60;88.80;;;;;;5104183;28;20472;-67
2022/07/12 11:26:50;;;;;;;2.38;1.20;;;28.80;88.60;;;;;;5105167;28;20043;-67
2022/07/12 11:29:16;;;;;;;2.78;1.20;;;28.90;87.80;;;;;;5107466;28;20119;-68
2022/07/12 11:31:41;;;;;;;2.70;1.77;;;29.10;87.70;;;;;;5104864;28;20084;-67
2022/07/12 11:34:07;;;;;;;5.10;1.70;;;29.20;87.90;;;;;;5108144;28;20397;-67
2022/07/12 11:36:33;;;;;;;4.32;2.40;;;29.10;89.40;;;;;;5108605;28;20342;-68
2022/07/12 11:39:00;;;;;;;4.00;2.40;;;29.10;88.90;;;;;;5107683;28;20044;-68
2022/07/12 11:41:26;;;;;;;2.67;1.80;;;29.20;89.10;;;;;;5107299;28;20035;-68
2022/07/12 11:43:51;;;;;;;3.00;1.50;;;29.30;89.70;;;;;;5106961;28;20543;-67
2022/07/12 11:46:17;;;;;;;3.55;1.80;;;29.30;88.40;;;;;;5104261;28;20507;-68
2022/07/12 11:48:43;;;;;;;4.45;1.70;;;29.40;87.90;;;;;;5107955;28;20048;-68
2022/07/12 11:51:11;;;;;;;3.88;2.45;;;29.50;87.20;;;;;;5106433;28;20088;-67
2022/07/12 11:53:38;;;;;;;3.13;1.88;;;29.10;86.60;;;;;;5107412;28;20067;-67
2022/07/12 11:56:06;;;;;;;2.90;1.63;;;28.90;87.40;;;;;;5107652;28;20039;-67
2022/07/12 11:58:32;;;;;;;3.47;1.58;;;29.00;87.60;;;;;;5107032;28;20383;-67
2022/07/12 12:00:58;;;;;;;3.00;1.88;;;29.10;87.50;;;;;;5105467;28;20034;-67
2022/07/12 12:03:24;;;;;;;3.80;1.90;;;29.20;87.50;;;;;;5107584;28;20122;-67
2022/07/12 12:05:52;;;;;;;2.78;1.70;;;29.30;88.40;;;;;;5107628;28;20549;-67
2022/07/12 12:08:18;;;;;;;3.45;1.83;;;29.30;88.40;;;;;;5105994;28;20042;-67
2022/07/12 12:11:02;;;;;;;3.47;1.50;;;29.40;88.20;;;;;;5107008;28;20040;-67
2022/07/12 12:13:29;;;;;;;2.60;1.20;;;29.30;88.60;;;;;;5107247;28;20036;-67
2022/07/12 12:15:56;;;;;;;2.50;1.20;;;29.40;86.50;;;;;;5106070;28;20040;-67
2022/07/12 12:18:36;;;;;;;2.30;0.98;;;29.50;83.50;;;;;;5106639;28;20046;-67
2022/07/12 12:21:10;;;;;;;4.43;1.45;;;29.50;82.90;;;;;;5105644;28;20047;-67
2022/07/12 12:23:38;;;;;;;2.38;1.42;;;29.50;83.60;;;;;;5107162;28;20058;-67
2022/07/12 12:26:21;;;;;;;2.40;1.40;;;29.30;81.80;;;;;;5106970;28;20456;-67
2022/07/12 12:28:54;;;;;;;3.53;1.55;;;29.20;82.50;;;;;;5106389;28;20110;-67
2022/07/12 12:31:21;;;;;;;3.88;1.50;;;29.20;83.20;;;;;;5105468;28;20036;-67
2022/07/12 12:33:49;;;;;;;2.67;1.33;;;29.20;84.30;;;;;;5108322;28;20047;-67
2022/07/12 12:36:20;;;;;;;3.10;1.20;;;29.10;83.40;;;;;;5105839;28;20494;-67
2022/07/12 12:38:48;;;;;;;3.17;1.40;;;29.20;83.90;;;;;;5106891;28;20512;-67
2022/07/12 12:41:14;;;;;;;2.65;1.45;;;29.30;84.60;;;;;;5106536;28;20036;-67
2022/07/12 12:43:41;;;;;;;3.63;1.42;;;29.50;84.80;;;;;;5105837;28;20039;-67
2022/07/12 12:46:06;;;;;;;1.85;1.20;;;29.50;84.40;;;;;;5106304;28;20040;-67
2022/07/12 12:48:33;;;;;;;2.58;1.10;;;29.70;84.00;;;;;;5107977;28;20036;-67
2022/07/12 12:51:10;;;;;;;3.10;1.10;;;29.70;83.00;;;;;;5099977;28;20063;-67
2022/07/12 12:53:38;;;;;;;3.47;1.30;;;29.70;82.30;;;;;;5098965;28;20048;-67
2022/07/12 12:56:10;;;;;;;2.58;0.90;;;29.70;80.60;;;;;;5105850;28;20589;-67
2022/07/12 12:58:37;;;;;;;1.83;1.00;;;29.80;79.00;;;;;;5109688;28;20039;-67
2022/07/12 13:01:04;;;;;;;0.88;0.70;;;29.60;76.10;;;;;;5108685;28;20431;-66